Robbins, Tennessee
Current Conditions -  °F | °C
As of 11:53 AM on Sunday 23 Nov 2014 (Local Time) from KOQT Reporting Station
Light Rain Light Rain  
Wind Chill: 50°   Ceiling: 7000
Heat Index: 50°   Visibility: 10mi
Dew Point: 44°   Wind: 0mph
Humidity: 80%   Direction: NA
Pressure: 29.92"   Gusts: NA
Location:  36.35°N, 84.59°W
Report Text: KOQT 231653Z AUTO 00000KT 10SM -RA OVC070 10/07 A2992 RMK AO2 RAB1555 SLP138 P0001 T01000067
Loading
Personal Weather Stations






























Interactive Weather Map New forecast layout! Learn more

10-Day Weather Forecast

Advertisements
Track Severe Weather on mobile